sensor_id;sensor_type;location;lat;lon;timestamp;P1;durP1;ratioP1;P2;durP2;ratioP2
5125;SDS011;63008;53.112;8.896;2023-12-20T00:00:35;15.90;;;2.87;;
5125;SDS011;63008;53.112;8.896;2023-12-20T00:02:58;17.70;;;2.00;;
5125;SDS011;63008;53.112;8.896;2023-12-20T00:05:19;11.27;;;1.93;;
5125;SDS011;63008;53.112;8.896;2023-12-20T00:07:40;14.47;;;2.07;;
5125;SDS011;63008;53.112;8.896;2023-12-20T00:10:01;18.77;;;1.83;;
5125;SDS011;63008;53.112;8.896;2023-12-20T00:12:22;10.00;;;2.03;;
5125;SDS011;63008;53.112;8.896;2023-12-20T00:14:43;26.90;;;3.30;;
5125;SDS011;63008;53.112;8.896;2023-12-20T00:17:04;10.23;;;2.77;;
5125;SDS011;63008;53.112;8.896;2023-12-20T00:19:25;9.90;;;1.80;;
5125;SDS011;63008;53.112;8.896;2023-12-20T00:21:46;15.23;;;3.10;;
5125;SDS011;63008;53.112;8.896;2023-12-20T00:24:07;9.60;;;2.03;;
5125;SDS011;63008;53.112;8.896;2023-12-20T00:26:28;18.60;;;1.90;;
5125;SDS011;63008;53.112;8.896;2023-12-20T00:28:49;9.47;;;1.80;;
5125;SDS011;63008;53.112;8.896;2023-12-20T00:31:10;19.33;;;2.40;;
5125;SDS011;63008;53.112;8.896;2023-12-20T00:33:31;10.17;;;1.70;;
5125;SDS011;63008;53.112;8.896;2023-12-20T00:35:52;14.43;;;2.20;;
5125;SDS011;63008;53.112;8.896;2023-12-20T00:38:14;11.37;;;2.50;;
5125;SDS011;63008;53.112;8.896;2023-12-20T00:40:35;24.10;;;2.50;;
5125;SDS011;63008;53.112;8.896;2023-12-20T00:42:56;7.60;;;2.07;;
5125;SDS011;63008;53.112;8.896;2023-12-20T00:45:17;22.50;;;2.20;;
5125;SDS011;63008;53.112;8.896;2023-12-20T00:47:38;16.23;;;2.20;;
5125;SDS011;63008;53.112;8.896;2023-12-20T00:49:59;13.17;;;1.57;;
5125;SDS011;63008;53.112;8.896;2023-12-20T00:52:20;16.73;;;2.60;;
5125;SDS011;63008;53.112;8.896;2023-12-20T00:54:43;16.50;;;2.33;;
5125;SDS011;63008;53.112;8.896;2023-12-20T00:57:04;18.27;;;2.10;;
5125;SDS011;63008;53.112;8.896;2023-12-20T00:59:25;10.60;;;2.20;;
5125;SDS011;63008;53.112;8.896;2023-12-20T01:01:46;9.97;;;2.40;;
5125;SDS011;63008;53.112;8.896;2023-12-20T01:04:07;10.20;;;1.40;;
5125;SDS011;63008;53.112;8.896;2023-12-20T01:06:28;13.40;;;2.67;;
5125;SDS011;63008;53.112;8.896;2023-12-20T01:08:49;15.13;;;1.83;;
5125;SDS011;63008;53.112;8.896;2023-12-20T01:11:10;11.43;;;2.13;;
5125;SDS011;63008;53.112;8.896;2023-12-20T01:13:31;11.93;;;2.00;;
5125;SDS011;63008;53.112;8.896;2023-12-20T01:15:52;11.93;;;2.17;;
5125;SDS011;63008;53.112;8.896;2023-12-20T01:18:13;9.33;;;1.83;;
5125;SDS011;63008;53.112;8.896;2023-12-20T01:20:35;16.70;;;1.93;;
5125;SDS011;63008;53.112;8.896;2023-12-20T01:22:56;13.83;;;2.53;;
5125;SDS011;63008;53.112;8.896;2023-12-20T01:25:17;14.67;;;2.20;;
5125;SDS011;63008;53.112;8.896;2023-12-20T01:27:39;17.93;;;2.60;;
5125;SDS011;63008;53.112;8.896;2023-12-20T01:30:00;9.40;;;1.90;;
5125;SDS011;63008;53.112;8.896;2023-12-20T01:32:21;16.17;;;2.20;;
5125;SDS011;63008;53.112;8.896;2023-12-20T01:34:42;11.80;;;1.93;;
5125;SDS011;63008;53.112;8.896;2023-12-20T01:37:03;9.40;;;2.00;;
5125;SDS011;63008;53.112;8.896;2023-12-20T01:39:24;11.20;;;1.93;;
5125;SDS011;63008;53.112;8.896;2023-12-20T01:41:46;16.97;;;3.37;;
5125;SDS011;63008;53.112;8.896;2023-12-20T01:44:06;14.43;;;2.10;;
5125;SDS011;63008;53.112;8.896;2023-12-20T01:46:28;10.73;;;2.30;;
5125;SDS011;63008;53.112;8.896;2023-12-20T01:48:49;18.53;;;1.90;;
5125;SDS011;63008;53.112;8.896;2023-12-20T01:51:10;8.70;;;2.00;;
5125;SDS011;63008;53.112;8.896;2023-12-20T01:53:31;9.23;;;2.37;;
5125;SDS011;63008;53.112;8.896;2023-12-20T01:55:54;9.80;;;1.90;;
5125;SDS011;63008;53.112;8.896;2023-12-20T01:58:16;9.13;;;1.90;;
5125;SDS011;63008;53.112;8.896;2023-12-20T02:00:38;25.63;;;2.70;;
5125;SDS011;63008;53.112;8.896;2023-12-20T02:03:00;10.10;;;1.83;;
5125;SDS011;63008;53.112;8.896;2023-12-20T02:05:22;14.30;;;2.40;;
5125;SDS011;63008;53.112;8.896;2023-12-20T02:07:44;16.63;;;2.43;;
5125;SDS011;63008;53.112;8.896;2023-12-20T02:10:05;17.87;;;2.80;;
5125;SDS011;63008;53.112;8.896;2023-12-20T02:12:27;14.37;;;2.40;;
5125;SDS011;63008;53.112;8.896;2023-12-20T02:14:48;7.40;;;2.20;;
5125;SDS011;63008;53.112;8.896;2023-12-20T02:17:09;19.50;;;1.77;;
5125;SDS011;63008;53.112;8.896;2023-12-20T02:19:30;11.77;;;1.70;;
5125;SDS011;63008;53.112;8.896;2023-12-20T02:22:04;12.13;;;3.40;;
5125;SDS011;63008;53.112;8.896;2023-12-20T02:24:34;15.73;;;1.93;;
5125;SDS011;63008;53.112;8.896;2023-12-20T02:26:55;8.97;;;1.73;;
5125;SDS011;63008;53.112;8.896;2023-12-20T02:29:16;13.70;;;1.90;;
5125;SDS011;63008;53.112;8.896;2023-12-20T02:31:37;13.03;;;2.43;;
5125;SDS011;63008;53.112;8.896;2023-12-20T02:33:58;14.70;;;1.63;;
5125;SDS011;63008;53.112;8.896;2023-12-20T02:36:19;15.83;;;2.20;;
5125;SDS011;63008;53.112;8.896;2023-12-20T02:38:40;8.73;;;1.50;;
5125;SDS011;63008;53.112;8.896;2023-12-20T02:41:01;10.80;;;1.90;;
5125;SDS011;63008;53.112;8.896;2023-12-20T02:43:22;9.70;;;1.83;;
5125;SDS011;63008;53.112;8.896;2023-12-20T02:45:43;9.37;;;1.63;;
5125;SDS011;63008;53.112;8.896;2023-12-20T02:48:04;18.03;;;1.97;;
5125;SDS011;63008;53.112;8.896;2023-12-20T02:50:25;7.60;;;2.23;;
5125;SDS011;63008;53.112;8.896;2023-12-20T02:52:46;8.73;;;1.73;;
5125;SDS011;63008;53.112;8.896;2023-12-20T02:55:07;43.60;;;2.73;;
5125;SDS011;63008;53.112;8.896;2023-12-20T02:57:28;15.27;;;2.40;;
5125;SDS011;63008;53.112;8.896;2023-12-20T02:59:49;11.80;;;2.80;;
5125;SDS011;63008;53.112;8.896;2023-12-20T03:02:10;16.37;;;3.57;;
5125;SDS011;63008;53.112;8.896;2023-12-20T03:04:31;12.13;;;1.90;;
5125;SDS011;63008;53.112;8.896;2023-12-20T03:06:52;7.43;;;2.07;;
5125;SDS011;63008;53.112;8.896;2023-12-20T03:09:13;13.77;;;1.90;;
5125;SDS011;63008;53.112;8.896;2023-12-20T03:11:34;3.30;;;1.60;;
5125;SDS011;63008;53.112;8.896;2023-12-20T03:13:55;15.13;;;2.67;;
5125;SDS011;63008;53.112;8.896;2023-12-20T03:16:17;39.13;;;2.80;;
5125;SDS011;63008;53.112;8.896;2023-12-20T03:18:38;14.40;;;2.53;;
5125;SDS011;63008;53.112;8.896;2023-12-20T03:20:59;9.20;;;1.33;;
5125;SDS011;63008;53.112;8.896;2023-12-20T03:23:20;11.13;;;2.10;;
5125;SDS011;63008;53.112;8.896;2023-12-20T03:25:41;11.23;;;2.50;;
5125;SDS011;63008;53.112;8.896;2023-12-20T03:28:02;16.17;;;2.23;;
5125;SDS011;63008;53.112;8.896;2023-12-20T03:30:24;9.93;;;2.10;;
5125;SDS011;63008;53.112;8.896;2023-12-20T03:32:45;9.40;;;1.70;;
5125;SDS011;63008;53.112;8.896;2023-12-20T03:35:06;10.90;;;1.73;;
5125;SDS011;63008;53.112;8.896;2023-12-20T03:37:27;20.03;;;2.63;;
5125;SDS011;63008;53.112;8.896;2023-12-20T03:39:48;12.87;;;2.07;;
5125;SDS011;63008;53.112;8.896;2023-12-20T03:42:09;16.17;;;2.20;;
5125;SDS011;63008;53.112;8.896;2023-12-20T03:44:30;9.03;;;1.73;;
5125;SDS011;63008;53.112;8.896;2023-12-20T03:46:51;12.53;;;1.90;;
5125;SDS011;63008;53.112;8.896;2023-12-20T03:49:12;12.33;;;2.10;;
5125;SDS011;63008;53.112;8.896;2023-12-20T03:51:33;21.20;;;3.00;;
5125;SDS011;63008;53.112;8.896;2023-12-20T03:53:54;10.80;;;2.07;;
5125;SDS011;63008;53.112;8.896;2023-12-20T03:56:15;15.07;;;2.17;;
5125;SDS011;63008;53.112;8.896;2023-12-20T03:58:36;8.83;;;2.23;;
5125;SDS011;63008;53.112;8.896;2023-12-20T04:00:57;11.40;;;2.50;;
5125;SDS011;63008;53.112;8.896;2023-12-20T04:03:18;15.60;;;2.87;;
5125;SDS011;63008;53.112;8.896;2023-12-20T04:05:40;10.10;;;2.60;;
5125;SDS011;63008;53.112;8.896;2023-12-20T04:08:01;17.80;;;2.83;;
5125;SDS011;63008;53.112;8.896;2023-12-20T04:10:23;10.17;;;3.00;;
5125;SDS011;63008;53.112;8.896;2023-12-20T04:12:43;7.43;;;2.53;;
5125;SDS011;63008;53.112;8.896;2023-12-20T04:15:05;23.53;;;2.73;;
5125;SDS011;63008;53.112;8.896;2023-12-20T04:17:29;13.10;;;2.70;;
5125;SDS011;63008;53.112;8.896;2023-12-20T04:19:50;9.87;;;2.37;;
5125;SDS011;63008;53.112;8.896;2023-12-20T04:22:12;21.03;;;2.90;;
5125;SDS011;63008;53.112;8.896;2023-12-20T04:24:33;15.47;;;3.40;;
5125;SDS011;63008;53.112;8.896;2023-12-20T04:26:54;18.60;;;2.90;;
5125;SDS011;63008;53.112;8.896;2023-12-20T04:29:15;17.80;;;3.40;;
5125;SDS011;63008;53.112;8.896;2023-12-20T04:31:36;10.73;;;3.27;;
5125;SDS011;63008;53.112;8.896;2023-12-20T04:33:57;19.33;;;2.90;;
5125;SDS011;63008;53.112;8.896;2023-12-20T04:36:18;9.40;;;2.37;;
5125;SDS011;63008;53.112;8.896;2023-12-20T04:38:39;9.97;;;2.70;;
5125;SDS011;63008;53.112;8.896;2023-12-20T04:41:00;9.13;;;2.30;;
5125;SDS011;63008;53.112;8.896;2023-12-20T04:43:21;12.60;;;2.53;;
5125;SDS011;63008;53.112;8.896;2023-12-20T04:45:42;16.87;;;3.40;;
5125;SDS011;63008;53.112;8.896;2023-12-20T04:48:03;14.70;;;3.40;;
5125;SDS011;63008;53.112;8.896;2023-12-20T04:50:24;18.43;;;3.67;;
5125;SDS011;63008;53.112;8.896;2023-12-20T04:52:45;15.63;;;3.27;;
5125;SDS011;63008;53.112;8.896;2023-12-20T04:55:06;25.07;;;4.13;;
5125;SDS011;63008;53.112;8.896;2023-12-20T04:57:27;17.43;;;3.80;;
5125;SDS011;63008;53.112;8.896;2023-12-20T04:59:48;12.50;;;3.83;;
5125;SDS011;63008;53.112;8.896;2023-12-20T05:02:09;23.23;;;4.00;;
5125;SDS011;63008;53.112;8.896;2023-12-20T05:04:30;9.13;;;3.33;;
5125;SDS011;63008;53.112;8.896;2023-12-20T05:06:51;14.63;;;4.37;;
5125;SDS011;63008;53.112;8.896;2023-12-20T05:09:12;24.90;;;4.50;;
5125;SDS011;63008;53.112;8.896;2023-12-20T05:11:33;25.33;;;4.27;;
5125;SDS011;63008;53.112;8.896;2023-12-20T05:13:55;14.93;;;3.30;;
5125;SDS011;63008;53.112;8.896;2023-12-20T05:16:16;17.30;;;4.60;;
5125;SDS011;63008;53.112;8.896;2023-12-20T05:18:38;16.20;;;3.30;;
5125;SDS011;63008;53.112;8.896;2023-12-20T05:20:59;17.57;;;3.97;;
5125;SDS011;63008;53.112;8.896;2023-12-20T05:23:20;13.37;;;3.07;;
5125;SDS011;63008;53.112;8.896;2023-12-20T05:25:41;13.80;;;3.70;;
5125;SDS011;63008;53.112;8.896;2023-12-20T05:28:02;17.03;;;3.80;;
5125;SDS011;63008;53.112;8.896;2023-12-20T05:30:23;16.20;;;3.57;;
5125;SDS011;63008;53.112;8.896;2023-12-20T05:32:44;12.90;;;3.70;;
5125;SDS011;63008;53.112;8.896;2023-12-20T05:35:05;15.83;;;4.00;;
5125;SDS011;63008;53.112;8.896;2023-12-20T05:37:26;21.87;;;3.23;;
5125;SDS011;63008;53.112;8.896;2023-12-20T05:39:47;16.50;;;3.20;;
5125;SDS011;63008;53.112;8.896;2023-12-20T05:42:08;28.53;;;4.07;;
5125;SDS011;63008;53.112;8.896;2023-12-20T05:44:29;17.10;;;2.40;;
5125;SDS011;63008;53.112;8.896;2023-12-20T05:46:50;13.03;;;3.40;;
5125;SDS011;63008;53.112;8.896;2023-12-20T05:49:11;19.80;;;3.73;;
5125;SDS011;63008;53.112;8.896;2023-12-20T05:51:31;22.13;;;3.27;;
5125;SDS011;63008;53.112;8.896;2023-12-20T05:53:53;15.47;;;3.07;;
5125;SDS011;63008;53.112;8.896;2023-12-20T05:56:14;15.83;;;2.90;;
5125;SDS011;63008;53.112;8.896;2023-12-20T05:58:35;7.30;;;2.27;;
5125;SDS011;63008;53.112;8.896;2023-12-20T06:00:56;8.27;;;2.30;;
5125;SDS011;63008;53.112;8.896;2023-12-20T06:03:17;17.67;;;4.17;;
5125;SDS011;63008;53.112;8.896;2023-12-20T06:05:38;26.57;;;5.23;;
5125;SDS011;63008;53.112;8.896;2023-12-20T06:07:59;17.23;;;3.03;;
5125;SDS011;63008;53.112;8.896;2023-12-20T06:10:23;13.43;;;3.10;;
5125;SDS011;63008;53.112;8.896;2023-12-20T06:12:44;14.63;;;3.20;;
5125;SDS011;63008;53.112;8.896;2023-12-20T06:15:08;34.37;;;3.50;;
5125;SDS011;63008;53.112;8.896;2023-12-20T06:17:29;23.30;;;3.10;;
5125;SDS011;63008;53.112;8.896;2023-12-20T06:19:51;19.23;;;4.10;;
5125;SDS011;63008;53.112;8.896;2023-12-20T06:22:12;20.50;;;3.43;;
5125;SDS011;63008;53.112;8.896;2023-12-20T06:24:33;18.40;;;2.90;;
5125;SDS011;63008;53.112;8.896;2023-12-20T06:26:54;24.90;;;3.90;;
5125;SDS011;63008;53.112;8.896;2023-12-20T06:29:16;24.77;;;3.73;;
5125;SDS011;63008;53.112;8.896;2023-12-20T06:31:37;23.73;;;4.10;;
5125;SDS011;63008;53.112;8.896;2023-12-20T06:33:58;14.53;;;3.17;;
5125;SDS011;63008;53.112;8.896;2023-12-20T06:36:20;18.63;;;3.47;;
5125;SDS011;63008;53.112;8.896;2023-12-20T06:38:41;18.70;;;3.20;;
5125;SDS011;63008;53.112;8.896;2023-12-20T06:41:03;21.63;;;3.43;;
5125;SDS011;63008;53.112;8.896;2023-12-20T06:43:24;17.30;;;4.00;;
5125;SDS011;63008;53.112;8.896;2023-12-20T06:45:45;23.60;;;4.87;;
5125;SDS011;63008;53.112;8.896;2023-12-20T06:48:06;19.90;;;3.73;;
5125;SDS011;63008;53.112;8.896;2023-12-20T06:50:27;27.50;;;4.30;;
5125;SDS011;63008;53.112;8.896;2023-12-20T06:52:48;20.80;;;3.60;;
5125;SDS011;63008;53.112;8.896;2023-12-20T06:55:09;23.63;;;3.73;;
5125;SDS011;63008;53.112;8.896;2023-12-20T06:57:30;16.30;;;3.60;;
5125;SDS011;63008;53.112;8.896;2023-12-20T06:59:52;16.03;;;2.53;;
5125;SDS011;63008;53.112;8.896;2023-12-20T07:02:14;18.87;;;4.57;;
5125;SDS011;63008;53.112;8.896;2023-12-20T07:04:39;23.80;;;3.23;;
5125;SDS011;63008;53.112;8.896;2023-12-20T07:07:00;13.60;;;3.40;;
5125;SDS011;63008;53.112;8.896;2023-12-20T07:09:21;22.37;;;3.83;;
5125;SDS011;63008;53.112;8.896;2023-12-20T07:11:42;26.87;;;3.80;;
5125;SDS011;63008;53.112;8.896;2023-12-20T07:14:03;21.37;;;3.70;;
5125;SDS011;63008;53.112;8.896;2023-12-20T07:16:24;22.53;;;3.87;;
5125;SDS011;63008;53.112;8.896;2023-12-20T07:18:45;21.10;;;3.90;;
5125;SDS011;63008;53.112;8.896;2023-12-20T07:21:06;21.13;;;3.70;;
5125;SDS011;63008;53.112;8.896;2023-12-20T07:23:28;19.30;;;3.33;;
5125;SDS011;63008;53.112;8.896;2023-12-20T07:25:50;27.60;;;4.20;;
5125;SDS011;63008;53.112;8.896;2023-12-20T07:28:10;14.73;;;2.93;;
5125;SDS011;63008;53.112;8.896;2023-12-20T07:30:32;21.20;;;4.23;;
5125;SDS011;63008;53.112;8.896;2023-12-20T07:32:52;17.90;;;2.60;;
5125;SDS011;63008;53.112;8.896;2023-12-20T07:35:15;21.30;;;3.50;;
5125;SDS011;63008;53.112;8.896;2023-12-20T07:37:36;17.30;;;3.63;;
5125;SDS011;63008;53.112;8.896;2023-12-20T07:39:57;31.43;;;4.37;;
5125;SDS011;63008;53.112;8.896;2023-12-20T07:42:18;15.13;;;3.33;;
5125;SDS011;63008;53.112;8.896;2023-12-20T07:44:39;20.63;;;4.10;;
5125;SDS011;63008;53.112;8.896;2023-12-20T07:47:00;30.70;;;4.57;;
5125;SDS011;63008;53.112;8.896;2023-12-20T07:49:21;14.40;;;2.83;;
5125;SDS011;63008;53.112;8.896;2023-12-20T07:51:42;26.37;;;3.90;;
5125;SDS011;63008;53.112;8.896;2023-12-20T07:54:03;18.70;;;3.70;;
5125;SDS011;63008;53.112;8.896;2023-12-20T07:56:25;27.47;;;4.20;;
5125;SDS011;63008;53.112;8.896;2023-12-20T07:58:46;24.97;;;3.87;;
5125;SDS011;63008;53.112;8.896;2023-12-20T08:01:09;22.23;;;3.77;;
5125;SDS011;63008;53.112;8.896;2023-12-20T08:03:31;11.20;;;3.70;;
5125;SDS011;63008;53.112;8.896;2023-12-20T08:05:51;25.07;;;3.10;;
5125;SDS011;63008;53.112;8.896;2023-12-20T08:08:13;16.73;;;3.20;;
5125;SDS011;63008;53.112;8.896;2023-12-20T08:10:33;12.83;;;3.67;;
5125;SDS011;63008;53.112;8.896;2023-12-20T08:12:54;20.37;;;3.17;;
5125;SDS011;63008;53.112;8.896;2023-12-20T08:15:16;17.80;;;3.47;;
5125;SDS011;63008;53.112;8.896;2023-12-20T08:17:37;14.37;;;3.47;;
5125;SDS011;63008;53.112;8.896;2023-12-20T08:19:57;26.50;;;5.10;;
5125;SDS011;63008;53.112;8.896;2023-12-20T08:22:19;12.10;;;3.67;;
5125;SDS011;63008;53.112;8.896;2023-12-20T08:24:40;21.03;;;3.97;;
5125;SDS011;63008;53.112;8.896;2023-12-20T08:27:02;18.77;;;3.47;;
5125;SDS011;63008;53.112;8.896;2023-12-20T08:29:22;14.10;;;3.30;;
5125;SDS011;63008;53.112;8.896;2023-12-20T08:31:44;30.17;;;4.20;;
5125;SDS011;63008;53.112;8.896;2023-12-20T08:34:05;18.83;;;3.40;;
5125;SDS011;63008;53.112;8.896;2023-12-20T08:36:26;32.13;;;4.20;;
5125;SDS011;63008;53.112;8.896;2023-12-20T08:38:47;28.77;;;3.90;;
5125;SDS011;63008;53.112;8.896;2023-12-20T08:41:08;12.57;;;3.33;;
5125;SDS011;63008;53.112;8.896;2023-12-20T08:43:29;18.40;;;3.70;;
5125;SDS011;63008;53.112;8.896;2023-12-20T08:45:50;18.87;;;2.90;;
5125;SDS011;63008;53.112;8.896;2023-12-20T08:48:11;16.77;;;3.20;;
5125;SDS011;63008;53.112;8.896;2023-12-20T08:50:32;14.13;;;2.83;;
5125;SDS011;63008;53.112;8.896;2023-12-20T08:52:53;25.40;;;4.47;;
5125;SDS011;63008;53.112;8.896;2023-12-20T08:55:14;14.63;;;3.77;;
5125;SDS011;63008;53.112;8.896;2023-12-20T08:57:37;13.83;;;3.33;;
5125;SDS011;63008;53.112;8.896;2023-12-20T08:59:58;18.23;;;2.63;;
5125;SDS011;63008;53.112;8.896;2023-12-20T09:02:19;11.07;;;3.40;;
5125;SDS011;63008;53.112;8.896;2023-12-20T09:04:39;14.30;;;3.20;;
5125;SDS011;63008;53.112;8.896;2023-12-20T09:07:01;18.47;;;3.47;;
5125;SDS011;63008;53.112;8.896;2023-12-20T09:09:21;29.23;;;4.40;;
5125;SDS011;63008;53.112;8.896;2023-12-20T09:11:43;21.03;;;3.20;;
5125;SDS011;63008;53.112;8.896;2023-12-20T09:14:06;10.10;;;3.40;;
5125;SDS011;63008;53.112;8.896;2023-12-20T09:16:27;16.70;;;4.40;;
5125;SDS011;63008;53.112;8.896;2023-12-20T09:18:48;11.43;;;3.23;;
5125;SDS011;63008;53.112;8.896;2023-12-20T09:21:09;10.93;;;3.00;;
5125;SDS011;63008;53.112;8.896;2023-12-20T09:23:30;20.00;;;4.03;;
5125;SDS011;63008;53.112;8.896;2023-12-20T09:25:51;17.53;;;3.23;;
5125;SDS011;63008;53.112;8.896;2023-12-20T09:28:12;23.97;;;3.50;;
5125;SDS011;63008;53.112;8.896;2023-12-20T09:30:33;29.43;;;3.33;;
5125;SDS011;63008;53.112;8.896;2023-12-20T09:32:56;20.73;;;3.20;;
5125;SDS011;63008;53.112;8.896;2023-12-20T09:35:17;18.67;;;3.60;;
5125;SDS011;63008;53.112;8.896;2023-12-20T09:37:38;20.17;;;2.70;;
5125;SDS011;63008;53.112;8.896;2023-12-20T09:40:02;9.90;;;2.03;;
5125;SDS011;63008;53.112;8.896;2023-12-20T09:42:24;20.97;;;3.17;;
5125;SDS011;63008;53.112;8.896;2023-12-20T09:45:00;22.73;;;4.40;;
5125;SDS011;63008;53.112;8.896;2023-12-20T09:47:24;23.97;;;3.70;;
5125;SDS011;63008;53.112;8.896;2023-12-20T09:49:45;4.40;;;1.23;;
5125;SDS011;63008;53.112;8.896;2023-12-20T09:52:06;4.53;;;0.90;;
5125;SDS011;63008;53.112;8.896;2023-12-20T09:54:28;13.17;;;2.30;;
5125;SDS011;63008;53.112;8.896;2023-12-20T09:56:50;8.77;;;1.83;;
5125;SDS011;63008;53.112;8.896;2023-12-20T09:59:10;10.23;;;1.47;;
5125;SDS011;63008;53.112;8.896;2023-12-20T10:01:32;4.60;;;1.10;;
5125;SDS011;63008;53.112;8.896;2023-12-20T10:03:54;3.90;;;1.03;;
5125;SDS011;63008;53.112;8.896;2023-12-20T10:06:15;5.70;;;1.70;;
5125;SDS011;63008;53.112;8.896;2023-12-20T10:08:36;4.23;;;1.43;;
5125;SDS011;63008;53.112;8.896;2023-12-20T10:10:58;2.20;;;0.80;;
5125;SDS011;63008;53.112;8.896;2023-12-20T10:13:22;13.87;;;1.20;;
5125;SDS011;63008;53.112;8.896;2023-12-20T10:15:44;4.47;;;1.87;;
5125;SDS011;63008;53.112;8.896;2023-12-20T10:18:05;5.73;;;2.90;;
5125;SDS011;63008;53.112;8.896;2023-12-20T10:20:26;15.97;;;2.80;;
5125;SDS011;63008;53.112;8.896;2023-12-20T10:22:49;4.60;;;1.90;;
5125;SDS011;63008;53.112;8.896;2023-12-20T10:25:10;2.23;;;1.77;;
5125;SDS011;63008;53.112;8.896;2023-12-20T10:27:31;4.90;;;1.70;;
5125;SDS011;63008;53.112;8.896;2023-12-20T10:29:52;3.20;;;1.20;;
5125;SDS011;63008;53.112;8.896;2023-12-20T10:32:23;3.53;;;1.30;;
5125;SDS011;63008;53.112;8.896;2023-12-20T10:34:45;6.87;;;1.50;;
5125;SDS011;63008;53.112;8.896;2023-12-20T10:37:06;4.03;;;1.47;;
5125;SDS011;63008;53.112;8.896;2023-12-20T10:39:27;3.90;;;1.10;;
5125;SDS011;63008;53.112;8.896;2023-12-20T10:41:48;3.70;;;1.87;;
5125;SDS011;63008;53.112;8.896;2023-12-20T10:44:09;5.53;;;1.27;;
5125;SDS011;63008;53.112;8.896;2023-12-20T10:46:31;4.33;;;1.13;;
5125;SDS011;63008;53.112;8.896;2023-12-20T10:48:55;5.43;;;1.57;;
5125;SDS011;63008;53.112;8.896;2023-12-20T10:51:17;1.53;;;1.10;;
5125;SDS011;63008;53.112;8.896;2023-12-20T10:53:39;6.27;;;1.33;;
5125;SDS011;63008;53.112;8.896;2023-12-20T10:56:01;5.10;;;1.80;;
5125;SDS011;63008;53.112;8.896;2023-12-20T10:58:24;6.17;;;1.70;;
5125;SDS011;63008;53.112;8.896;2023-12-20T11:00:46;4.87;;;2.00;;
5125;SDS011;63008;53.112;8.896;2023-12-20T11:03:11;5.67;;;1.53;;
5125;SDS011;63008;53.112;8.896;2023-12-20T11:05:42;4.17;;;1.73;;
5125;SDS011;63008;53.112;8.896;2023-12-20T11:08:12;11.20;;;1.10;;
5125;SDS011;63008;53.112;8.896;2023-12-20T11:13:08;5.07;;;1.30;;
5125;SDS011;63008;53.112;8.896;2023-12-20T11:15:40;5.70;;;1.30;;
5125;SDS011;63008;53.112;8.896;2023-12-20T11:18:02;2.50;;;1.10;;
5125;SDS011;63008;53.112;8.896;2023-12-20T11:20:24;3.77;;;1.60;;
5125;SDS011;63008;53.112;8.896;2023-12-20T11:22:59;5.73;;;1.63;;
5125;SDS011;63008;53.112;8.896;2023-12-20T11:25:20;4.50;;;1.27;;
5125;SDS011;63008;53.112;8.896;2023-12-20T11:27:41;4.27;;;1.50;;
5125;SDS011;63008;53.112;8.896;2023-12-20T11:30:04;10.73;;;2.07;;
5125;SDS011;63008;53.112;8.896;2023-12-20T11:32:29;10.03;;;1.27;;
5125;SDS011;63008;53.112;8.896;2023-12-20T11:34:50;8.03;;;2.30;;
5125;SDS011;63008;53.112;8.896;2023-12-20T11:37:14;15.50;;;1.60;;
5125;SDS011;63008;53.112;8.896;2023-12-20T11:39:35;10.00;;;1.77;;
5125;SDS011;63008;53.112;8.896;2023-12-20T11:41:56;7.13;;;2.10;;
5125;SDS011;63008;53.112;8.896;2023-12-20T11:44:18;9.67;;;2.17;;
5125;SDS011;63008;53.112;8.896;2023-12-20T11:46:38;7.13;;;1.90;;
5125;SDS011;63008;53.112;8.896;2023-12-20T11:49:00;12.83;;;2.73;;
5125;SDS011;63008;53.112;8.896;2023-12-20T11:51:21;17.33;;;2.80;;
5125;SDS011;63008;53.112;8.896;2023-12-20T11:53:42;7.10;;;2.13;;
5125;SDS011;63008;53.112;8.896;2023-12-20T11:56:04;11.10;;;2.30;;
5125;SDS011;63008;53.112;8.896;2023-12-20T11:58:26;7.13;;;1.67;;
5125;SDS011;63008;53.112;8.896;2023-12-20T12:00:49;13.87;;;2.07;;
5125;SDS011;63008;53.112;8.896;2023-12-20T12:03:10;7.70;;;1.87;;
5125;SDS011;63008;53.112;8.896;2023-12-20T12:05:35;6.93;;;1.67;;
5125;SDS011;63008;53.112;8.896;2023-12-20T12:07:56;17.50;;;1.87;;
5125;SDS011;63008;53.112;8.896;2023-12-20T12:10:17;6.50;;;1.67;;
5125;SDS011;63008;53.112;8.896;2023-12-20T12:12:38;8.17;;;1.97;;
5125;SDS011;63008;53.112;8.896;2023-12-20T12:14:59;12.13;;;1.60;;
5125;SDS011;63008;53.112;8.896;2023-12-20T12:17:20;11.40;;;2.00;;
5125;SDS011;63008;53.112;8.896;2023-12-20T12:19:42;15.37;;;2.37;;
5125;SDS011;63008;53.112;8.896;2023-12-20T12:22:04;14.43;;;1.70;;
5125;SDS011;63008;53.112;8.896;2023-12-20T12:24:31;8.87;;;2.23;;
5125;SDS011;63008;53.112;8.896;2023-12-20T12:26:52;11.90;;;2.70;;
5125;SDS011;63008;53.112;8.896;2023-12-20T12:29:13;3.93;;;1.60;;
5125;SDS011;63008;53.112;8.896;2023-12-20T12:31:34;7.40;;;1.10;;
5125;SDS011;63008;53.112;8.896;2023-12-20T12:33:55;6.03;;;1.30;;
5125;SDS011;63008;53.112;8.896;2023-12-20T12:36:16;9.40;;;1.13;;
5125;SDS011;63008;53.112;8.896;2023-12-20T12:38:38;7.23;;;1.03;;
5125;SDS011;63008;53.112;8.896;2023-12-20T12:40:59;1.30;;;1.17;;
5125;SDS011;63008;53.112;8.896;2023-12-20T12:43:21;3.13;;;1.20;;
5125;SDS011;63008;53.112;8.896;2023-12-20T12:45:43;7.83;;;1.97;;
5125;SDS011;63008;53.112;8.896;2023-12-20T12:48:04;8.53;;;3.40;;
5125;SDS011;63008;53.112;8.896;2023-12-20T12:50:27;21.33;;;3.77;;
5125;SDS011;63008;53.112;8.896;2023-12-20T12:52:49;17.40;;;4.10;;
5125;SDS011;63008;53.112;8.896;2023-12-20T12:55:10;18.33;;;2.83;;
5125;SDS011;63008;53.112;8.896;2023-12-20T12:57:31;13.40;;;2.07;;
5125;SDS011;63008;53.112;8.896;2023-12-20T12:59:53;18.10;;;2.97;;
5125;SDS011;63008;53.112;8.896;2023-12-20T13:02:14;14.47;;;2.70;;
5125;SDS011;63008;53.112;8.896;2023-12-20T13:04:35;7.57;;;2.63;;
5125;SDS011;63008;53.112;8.896;2023-12-20T13:06:56;19.87;;;3.60;;
5125;SDS011;63008;53.112;8.896;2023-12-20T13:09:17;30.73;;;4.67;;
5125;SDS011;63008;53.112;8.896;2023-12-20T13:11:39;19.23;;;3.97;;
5125;SDS011;63008;53.112;8.896;2023-12-20T13:14:01;10.20;;;2.50;;
5125;SDS011;63008;53.112;8.896;2023-12-20T13:16:22;10.97;;;2.43;;
5125;SDS011;63008;53.112;8.896;2023-12-20T13:18:43;23.13;;;2.77;;
5125;SDS011;63008;53.112;8.896;2023-12-20T13:21:04;11.77;;;2.47;;
5125;SDS011;63008;53.112;8.896;2023-12-20T13:23:25;11.87;;;2.10;;
5125;SDS011;63008;53.112;8.896;2023-12-20T13:25:46;9.13;;;2.00;;
5125;SDS011;63008;53.112;8.896;2023-12-20T13:28:07;10.90;;;1.97;;
5125;SDS011;63008;53.112;8.896;2023-12-20T13:30:29;10.83;;;2.10;;
5125;SDS011;63008;53.112;8.896;2023-12-20T13:32:50;15.17;;;2.00;;
5125;SDS011;63008;53.112;8.896;2023-12-20T13:35:11;12.50;;;2.63;;
5125;SDS011;63008;53.112;8.896;2023-12-20T13:37:32;7.70;;;2.17;;
5125;SDS011;63008;53.112;8.896;2023-12-20T13:39:53;5.33;;;2.07;;
5125;SDS011;63008;53.112;8.896;2023-12-20T13:42:14;17.80;;;2.53;;
5125;SDS011;63008;53.112;8.896;2023-12-20T13:44:35;17.10;;;2.40;;
5125;SDS011;63008;53.112;8.896;2023-12-20T13:46:56;16.43;;;2.77;;
5125;SDS011;63008;53.112;8.896;2023-12-20T13:49:17;14.23;;;2.60;;
5125;SDS011;63008;53.112;8.896;2023-12-20T13:51:38;6.90;;;1.50;;
5125;SDS011;63008;53.112;8.896;2023-12-20T13:53:58;10.63;;;2.57;;
5125;SDS011;63008;53.112;8.896;2023-12-20T13:56:20;11.77;;;1.77;;
5125;SDS011;63008;53.112;8.896;2023-12-20T13:58:40;13.03;;;2.67;;
5125;SDS011;63008;53.112;8.896;2023-12-20T14:01:02;12.50;;;2.30;;
5125;SDS011;63008;53.112;8.896;2023-12-20T14:03:23;15.50;;;2.27;;
5125;SDS011;63008;53.112;8.896;2023-12-20T14:05:44;20.03;;;2.20;;
5125;SDS011;63008;53.112;8.896;2023-12-20T14:08:05;10.90;;;2.30;;
5125;SDS011;63008;53.112;8.896;2023-12-20T14:10:27;13.93;;;2.90;;
5125;SDS011;63008;53.112;8.896;2023-12-20T14:12:48;29.90;;;3.33;;
5125;SDS011;63008;53.112;8.896;2023-12-20T14:15:09;19.37;;;2.77;;
5125;SDS011;63008;53.112;8.896;2023-12-20T14:17:31;7.80;;;2.10;;